Terminal Aerodrome Forecast
Issued by NWS

Home | Current Version | Previous Version | Text Only | Print | Product List | Glossary On
Versions: 1 2 3 4 5 6 7 8 9 10 11 12 13 14 15 16 17 18 19 20 21
379
FTUS43 KILX 290527
TAFBMI
TAF
KBMI 290527Z 2906/3006 VRB03KT P6SM BKN040
     FM290800 VRB03KT 3SM BR BKN040
     FM291000 VRB03KT 2SM BR BKN015
     FM291500 30004KT P6SM BKN025 PROB30 2917/2923 4SM TSRA OVC025CB
     FM300000 33004KT P6SM BKN035=

USA.gov is the U.S. government's official web portal to all federal, state and local government web resources and services.